sensor_id;sensor_type;location;lat;lon;timestamp;temperature;humidity
49253;DHT22;35103;47.952;-1.502;2022-12-07T00:01:26;5.50;76.20
49253;DHT22;35103;47.952;-1.502;2022-12-07T00:03:53;5.40;76.40
49253;DHT22;35103;47.952;-1.502;2022-12-07T00:06:20;5.30;76.40
49253;DHT22;35103;47.952;-1.502;2022-12-07T00:08:46;5.30;76.40
49253;DHT22;35103;47.952;-1.502;2022-12-07T00:11:22;5.30;76.50
49253;DHT22;35103;47.952;-1.502;2022-12-07T00:13:55;5.20;76.80
49253;DHT22;35103;47.952;-1.502;2022-12-07T00:16:23;5.10;76.90
49253;DHT22;35103;47.952;-1.502;2022-12-07T00:18:50;5.00;76.70
49253;DHT22;35103;47.952;-1.502;2022-12-07T00:21:21;5.00;76.70
49253;DHT22;35103;47.952;-1.502;2022-12-07T00:23:48;4.90;76.70
49253;DHT22;35103;47.952;-1.502;2022-12-07T00:26:36;4.80;76.80
49253;DHT22;35103;47.952;-1.502;2022-12-07T00:29:06;4.80;76.90
49253;DHT22;35103;47.952;-1.502;2022-12-07T00:31:34;4.80;77.00
49253;DHT22;35103;47.952;-1.502;2022-12-07T00:34:01;4.70;77.00
49253;DHT22;35103;47.952;-1.502;2022-12-07T00:36:26;4.70;77.30
49253;DHT22;35103;47.952;-1.502;2022-12-07T00:38:52;4.60;77.20
49253;DHT22;35103;47.952;-1.502;2022-12-07T00:41:20;4.50;77.30
49253;DHT22;35103;47.952;-1.502;2022-12-07T00:43:47;4.50;77.40
49253;DHT22;35103;47.952;-1.502;2022-12-07T00:46:14;4.40;77.40
49253;DHT22;35103;47.952;-1.502;2022-12-07T00:48:40;4.40;77.40
49253;DHT22;35103;47.952;-1.502;2022-12-07T00:51:06;4.30;77.40
49253;DHT22;35103;47.952;-1.502;2022-12-07T00:53:34;4.30;77.30
49253;DHT22;35103;47.952;-1.502;2022-12-07T00:56:07;4.30;77.40
49253;DHT22;35103;47.952;-1.502;2022-12-07T00:58:33;4.30;77.50
49253;DHT22;35103;47.952;-1.502;2022-12-07T01:01:02;4.30;77.40
49253;DHT22;35103;47.952;-1.502;2022-12-07T01:03:29;4.20;77.60
49253;DHT22;35103;47.952;-1.502;2022-12-07T01:05:55;4.20;77.50
49253;DHT22;35103;47.952;-1.502;2022-12-07T01:08:22;4.10;77.50
49253;DHT22;35103;47.952;-1.502;2022-12-07T01:10:49;4.10;77.70
49253;DHT22;35103;47.952;-1.502;2022-12-07T01:13:15;4.00;77.70
49253;DHT22;35103;47.952;-1.502;2022-12-07T01:15:42;4.00;77.70
49253;DHT22;35103;47.952;-1.502;2022-12-07T01:18:08;3.90;77.90
49253;DHT22;35103;47.952;-1.502;2022-12-07T01:20:34;3.90;78.00
49253;DHT22;35103;47.952;-1.502;2022-12-07T01:22:59;3.90;78.00
49253;DHT22;35103;47.952;-1.502;2022-12-07T01:25:25;3.90;78.00
49253;DHT22;35103;47.952;-1.502;2022-12-07T01:27:51;3.90;77.90
49253;DHT22;35103;47.952;-1.502;2022-12-07T01:30:16;3.80;77.90
49253;DHT22;35103;47.952;-1.502;2022-12-07T01:32:42;3.80;77.90
49253;DHT22;35103;47.952;-1.502;2022-12-07T01:35:08;3.80;77.90
49253;DHT22;35103;47.952;-1.502;2022-12-07T01:37:35;3.80;77.90
49253;DHT22;35103;47.952;-1.502;2022-12-07T01:40:01;3.70;77.70
49253;DHT22;35103;47.952;-1.502;2022-12-07T01:42:28;3.60;77.70
49253;DHT22;35103;47.952;-1.502;2022-12-07T01:47:51;3.60;77.70
49253;DHT22;35103;47.952;-1.502;2022-12-07T01:50:19;3.50;77.70
49253;DHT22;35103;47.952;-1.502;2022-12-07T01:52:49;3.40;77.60
49253;DHT22;35103;47.952;-1.502;2022-12-07T01:55:16;3.40;77.70
49253;DHT22;35103;47.952;-1.502;2022-12-07T01:57:47;3.30;77.70
49253;DHT22;35103;47.952;-1.502;2022-12-07T02:00:13;3.30;77.70
49253;DHT22;35103;47.952;-1.502;2022-12-07T02:02:46;3.30;77.60
49253;DHT22;35103;47.952;-1.502;2022-12-07T02:05:13;3.20;77.50
49253;DHT22;35103;47.952;-1.502;2022-12-07T02:07:39;3.10;77.50
49253;DHT22;35103;47.952;-1.502;2022-12-07T02:10:17;3.10;77.70
49253;DHT22;35103;47.952;-1.502;2022-12-07T02:12:47;3.00;77.80
49253;DHT22;35103;47.952;-1.502;2022-12-07T02:15:14;3.00;77.90
49253;DHT22;35103;47.952;-1.502;2022-12-07T02:18:07;3.00;77.90
49253;DHT22;35103;47.952;-1.502;2022-12-07T02:20:58;3.00;78.00
49253;DHT22;35103;47.952;-1.502;2022-12-07T02:26:38;3.00;77.90
49253;DHT22;35103;47.952;-1.502;2022-12-07T02:29:26;2.90;77.90
49253;DHT22;35103;47.952;-1.502;2022-12-07T02:32:10;2.90;77.80
49253;DHT22;35103;47.952;-1.502;2022-12-07T02:34:50;2.90;77.90
49253;DHT22;35103;47.952;-1.502;2022-12-07T02:40:00;2.80;77.90
49253;DHT22;35103;47.952;-1.502;2022-12-07T02:42:38;2.80;78.00
49253;DHT22;35103;47.952;-1.502;2022-12-07T02:45:07;2.80;78.20
49253;DHT22;35103;47.952;-1.502;2022-12-07T02:47:34;2.70;78.10
49253;DHT22;35103;47.952;-1.502;2022-12-07T02:50:04;2.70;78.10
49253;DHT22;35103;47.952;-1.502;2022-12-07T02:52:30;2.70;78.10
49253;DHT22;35103;47.952;-1.502;2022-12-07T02:54:56;2.70;78.30
49253;DHT22;35103;47.952;-1.502;2022-12-07T03:00:16;2.60;78.50
49253;DHT22;35103;47.952;-1.502;2022-12-07T03:02:59;2.60;78.40
49253;DHT22;35103;47.952;-1.502;2022-12-07T03:08:21;2.70;78.60
49253;DHT22;35103;47.952;-1.502;2022-12-07T03:11:02;2.70;78.60
49253;DHT22;35103;47.952;-1.502;2022-12-07T03:13:58;2.60;78.50
49253;DHT22;35103;47.952;-1.502;2022-12-07T03:19:15;2.60;78.60
49253;DHT22;35103;47.952;-1.502;2022-12-07T03:22:00;2.60;78.60
49253;DHT22;35103;47.952;-1.502;2022-12-07T03:24:31;2.60;78.70
49253;DHT22;35103;47.952;-1.502;2022-12-07T03:27:05;2.60;78.80
49253;DHT22;35103;47.952;-1.502;2022-12-07T03:29:36;2.60;78.90
49253;DHT22;35103;47.952;-1.502;2022-12-07T03:32:31;2.60;78.90
49253;DHT22;35103;47.952;-1.502;2022-12-07T03:42:44;2.50;79.00
49253;DHT22;35103;47.952;-1.502;2022-12-07T03:45:11;2.40;79.20
49253;DHT22;35103;47.952;-1.502;2022-12-07T03:47:47;2.50;79.30
49253;DHT22;35103;47.952;-1.502;2022-12-07T03:50:42;2.40;79.30
49253;DHT22;35103;47.952;-1.502;2022-12-07T03:53:32;2.40;79.30
49253;DHT22;35103;47.952;-1.502;2022-12-07T03:56:00;2.40;79.10
49253;DHT22;35103;47.952;-1.502;2022-12-07T03:58:27;2.30;79.10
49253;DHT22;35103;47.952;-1.502;2022-12-07T04:00:53;2.30;79.10
49253;DHT22;35103;47.952;-1.502;2022-12-07T04:03:19;2.30;79.00
49253;DHT22;35103;47.952;-1.502;2022-12-07T04:05:44;2.30;78.80
49253;DHT22;35103;47.952;-1.502;2022-12-07T04:08:10;2.30;78.80
49253;DHT22;35103;47.952;-1.502;2022-12-07T04:10:36;2.20;78.80
49253;DHT22;35103;47.952;-1.502;2022-12-07T04:13:02;2.20;78.70
49253;DHT22;35103;47.952;-1.502;2022-12-07T04:15:27;2.20;78.70
49253;DHT22;35103;47.952;-1.502;2022-12-07T04:17:53;2.10;78.80
49253;DHT22;35103;47.952;-1.502;2022-12-07T04:20:19;2.10;78.80
49253;DHT22;35103;47.952;-1.502;2022-12-07T04:22:44;2.00;78.80
49253;DHT22;35103;47.952;-1.502;2022-12-07T04:25:10;2.00;78.80
49253;DHT22;35103;47.952;-1.502;2022-12-07T04:27:35;1.90;78.80
49253;DHT22;35103;47.952;-1.502;2022-12-07T04:30:01;1.90;78.70
49253;DHT22;35103;47.952;-1.502;2022-12-07T04:32:27;1.90;78.70
49253;DHT22;35103;47.952;-1.502;2022-12-07T04:34:52;1.80;78.70
49253;DHT22;35103;47.952;-1.502;2022-12-07T04:37:18;1.80;78.70
49253;DHT22;35103;47.952;-1.502;2022-12-07T04:39:43;1.80;78.80
49253;DHT22;35103;47.952;-1.502;2022-12-07T04:42:09;1.70;78.70
49253;DHT22;35103;47.952;-1.502;2022-12-07T04:44:35;1.70;78.70
49253;DHT22;35103;47.952;-1.502;2022-12-07T04:47:01;1.70;78.70
49253;DHT22;35103;47.952;-1.502;2022-12-07T04:49:26;1.70;79.00
49253;DHT22;35103;47.952;-1.502;2022-12-07T04:51:52;1.70;79.10
49253;DHT22;35103;47.952;-1.502;2022-12-07T04:54:18;1.70;79.10
49253;DHT22;35103;47.952;-1.502;2022-12-07T04:56:44;1.70;79.20
49253;DHT22;35103;47.952;-1.502;2022-12-07T04:59:11;1.70;79.20
49253;DHT22;35103;47.952;-1.502;2022-12-07T05:01:36;1.70;79.10
49253;DHT22;35103;47.952;-1.502;2022-12-07T05:04:02;1.70;79.00
49253;DHT22;35103;47.952;-1.502;2022-12-07T05:06:28;1.70;79.00
49253;DHT22;35103;47.952;-1.502;2022-12-07T05:08:54;1.70;79.20
49253;DHT22;35103;47.952;-1.502;2022-12-07T05:11:19;1.70;79.30
49253;DHT22;35103;47.952;-1.502;2022-12-07T05:13:45;1.70;79.40
49253;DHT22;35103;47.952;-1.502;2022-12-07T05:16:10;1.70;79.50
49253;DHT22;35103;47.952;-1.502;2022-12-07T05:18:36;1.70;79.60
49253;DHT22;35103;47.952;-1.502;2022-12-07T05:21:01;1.70;79.80
49253;DHT22;35103;47.952;-1.502;2022-12-07T05:23:27;1.80;79.80
49253;DHT22;35103;47.952;-1.502;2022-12-07T05:25:52;1.80;80.00
49253;DHT22;35103;47.952;-1.502;2022-12-07T05:28:18;1.90;80.40
49253;DHT22;35103;47.952;-1.502;2022-12-07T05:30:44;1.90;80.50
49253;DHT22;35103;47.952;-1.502;2022-12-07T05:33:09;2.00;80.40
49253;DHT22;35103;47.952;-1.502;2022-12-07T05:35:35;2.00;80.50
49253;DHT22;35103;47.952;-1.502;2022-12-07T05:38:00;2.10;80.60
49253;DHT22;35103;47.952;-1.502;2022-12-07T05:40:26;2.10;80.40
49253;DHT22;35103;47.952;-1.502;2022-12-07T05:42:51;2.10;80.30
49253;DHT22;35103;47.952;-1.502;2022-12-07T05:45:17;2.10;80.30
49253;DHT22;35103;47.952;-1.502;2022-12-07T05:47:42;2.00;80.40
49253;DHT22;35103;47.952;-1.502;2022-12-07T05:50:08;2.00;80.40
49253;DHT22;35103;47.952;-1.502;2022-12-07T05:52:34;1.90;80.40
49253;DHT22;35103;47.952;-1.502;2022-12-07T05:55:00;1.90;80.50
49253;DHT22;35103;47.952;-1.502;2022-12-07T05:57:25;1.80;80.80
49253;DHT22;35103;47.952;-1.502;2022-12-07T05:59:51;1.80;80.90
49253;DHT22;35103;47.952;-1.502;2022-12-07T06:02:17;1.70;81.10
49253;DHT22;35103;47.952;-1.502;2022-12-07T06:04:44;1.70;81.30
49253;DHT22;35103;47.952;-1.502;2022-12-07T06:07:11;1.60;81.40
49253;DHT22;35103;47.952;-1.502;2022-12-07T06:09:38;1.60;81.50
49253;DHT22;35103;47.952;-1.502;2022-12-07T06:12:04;1.70;81.50
49253;DHT22;35103;47.952;-1.502;2022-12-07T06:14:29;1.70;81.60
49253;DHT22;35103;47.952;-1.502;2022-12-07T06:16:55;1.70;81.80
49253;DHT22;35103;47.952;-1.502;2022-12-07T06:19:21;1.60;82.00
49253;DHT22;35103;47.952;-1.502;2022-12-07T06:21:47;1.60;81.90
49253;DHT22;35103;47.952;-1.502;2022-12-07T06:24:14;1.70;82.00
49253;DHT22;35103;47.952;-1.502;2022-12-07T06:26:40;1.70;82.10
49253;DHT22;35103;47.952;-1.502;2022-12-07T06:29:06;1.70;81.90
49253;DHT22;35103;47.952;-1.502;2022-12-07T06:31:31;1.70;82.00
49253;DHT22;35103;47.952;-1.502;2022-12-07T06:34:02;1.70;81.90
49253;DHT22;35103;47.952;-1.502;2022-12-07T06:36:29;1.70;82.00
49253;DHT22;35103;47.952;-1.502;2022-12-07T06:38:55;1.70;82.30
49253;DHT22;35103;47.952;-1.502;2022-12-07T06:41:21;1.70;82.30
49253;DHT22;35103;47.952;-1.502;2022-12-07T06:43:47;1.70;82.30
49253;DHT22;35103;47.952;-1.502;2022-12-07T06:46:14;1.70;82.30
49253;DHT22;35103;47.952;-1.502;2022-12-07T06:48:40;1.70;82.20
49253;DHT22;35103;47.952;-1.502;2022-12-07T06:51:06;1.70;82.50
49253;DHT22;35103;47.952;-1.502;2022-12-07T06:53:31;1.80;82.40
49253;DHT22;35103;47.952;-1.502;2022-12-07T06:55:57;1.80;82.40
49253;DHT22;35103;47.952;-1.502;2022-12-07T06:58:23;1.80;82.30
49253;DHT22;35103;47.952;-1.502;2022-12-07T07:00:49;1.80;82.30
49253;DHT22;35103;47.952;-1.502;2022-12-07T07:03:14;1.70;82.40
49253;DHT22;35103;47.952;-1.502;2022-12-07T07:05:41;1.70;82.50
49253;DHT22;35103;47.952;-1.502;2022-12-07T07:08:07;1.70;82.40
49253;DHT22;35103;47.952;-1.502;2022-12-07T07:10:34;1.80;82.30
49253;DHT22;35103;47.952;-1.502;2022-12-07T07:12:59;1.80;82.50
49253;DHT22;35103;47.952;-1.502;2022-12-07T07:15:25;1.80;82.40
49253;DHT22;35103;47.952;-1.502;2022-12-07T07:17:51;1.80;82.50
49253;DHT22;35103;47.952;-1.502;2022-12-07T07:20:16;1.80;82.50
49253;DHT22;35103;47.952;-1.502;2022-12-07T07:22:42;1.70;82.50
49253;DHT22;35103;47.952;-1.502;2022-12-07T07:25:08;1.70;82.50
49253;DHT22;35103;47.952;-1.502;2022-12-07T07:27:33;1.70;82.50
49253;DHT22;35103;47.952;-1.502;2022-12-07T07:29:59;1.70;82.60
49253;DHT22;35103;47.952;-1.502;2022-12-07T07:32:24;1.60;82.70
49253;DHT22;35103;47.952;-1.502;2022-12-07T07:34:50;1.70;82.60
49253;DHT22;35103;47.952;-1.502;2022-12-07T07:37:16;1.60;82.60
49253;DHT22;35103;47.952;-1.502;2022-12-07T07:39:41;1.70;82.60
49253;DHT22;35103;47.952;-1.502;2022-12-07T07:42:07;1.60;82.50
49253;DHT22;35103;47.952;-1.502;2022-12-07T07:44:33;1.60;82.50
49253;DHT22;35103;47.952;-1.502;2022-12-07T07:46:59;1.60;82.50
49253;DHT22;35103;47.952;-1.502;2022-12-07T07:49:25;1.60;82.60
49253;DHT22;35103;47.952;-1.502;2022-12-07T07:51:50;1.60;82.80
49253;DHT22;35103;47.952;-1.502;2022-12-07T07:54:16;1.60;82.80
49253;DHT22;35103;47.952;-1.502;2022-12-07T07:56:42;1.60;82.80
49253;DHT22;35103;47.952;-1.502;2022-12-07T07:59:07;1.60;82.80
49253;DHT22;35103;47.952;-1.502;2022-12-07T08:01:33;1.60;82.70
49253;DHT22;35103;47.952;-1.502;2022-12-07T08:03:58;1.60;82.70
49253;DHT22;35103;47.952;-1.502;2022-12-07T08:06:24;1.60;82.70
49253;DHT22;35103;47.952;-1.502;2022-12-07T08:08:49;1.70;82.60
49253;DHT22;35103;47.952;-1.502;2022-12-07T08:11:15;1.70;82.70
49253;DHT22;35103;47.952;-1.502;2022-12-07T08:13:40;1.70;82.70
49253;DHT22;35103;47.952;-1.502;2022-12-07T08:16:09;1.70;82.70
49253;DHT22;35103;47.952;-1.502;2022-12-07T08:18:39;1.70;82.80
49253;DHT22;35103;47.952;-1.502;2022-12-07T08:21:05;1.70;82.90
49253;DHT22;35103;47.952;-1.502;2022-12-07T08:23:32;1.70;82.90
49253;DHT22;35103;47.952;-1.502;2022-12-07T08:26:02;1.80;82.90
49253;DHT22;35103;47.952;-1.502;2022-12-07T08:28:29;1.80;82.80
49253;DHT22;35103;47.952;-1.502;2022-12-07T08:31:06;1.80;82.80
49253;DHT22;35103;47.952;-1.502;2022-12-07T08:33:32;1.80;82.70
49253;DHT22;35103;47.952;-1.502;2022-12-07T08:36:06;1.90;82.60
49253;DHT22;35103;47.952;-1.502;2022-12-07T08:38:33;2.00;82.60
49253;DHT22;35103;47.952;-1.502;2022-12-07T08:40:59;2.00;82.40
49253;DHT22;35103;47.952;-1.502;2022-12-07T08:43:25;2.00;82.40
49253;DHT22;35103;47.952;-1.502;2022-12-07T08:48:51;2.00;82.30
49253;DHT22;35103;47.952;-1.502;2022-12-07T08:51:19;2.00;82.20
49253;DHT22;35103;47.952;-1.502;2022-12-07T08:53:45;1.90;82.40
49253;DHT22;35103;47.952;-1.502;2022-12-07T08:56:11;1.90;82.60
49253;DHT22;35103;47.952;-1.502;2022-12-07T08:58:37;1.90;82.70
49253;DHT22;35103;47.952;-1.502;2022-12-07T09:01:04;1.80;82.90
49253;DHT22;35103;47.952;-1.502;2022-12-07T09:03:29;1.80;82.90
49253;DHT22;35103;47.952;-1.502;2022-12-07T09:05:55;1.90;83.00
49253;DHT22;35103;47.952;-1.502;2022-12-07T09:08:22;2.00;82.90
49253;DHT22;35103;47.952;-1.502;2022-12-07T09:10:48;2.10;82.90
49253;DHT22;35103;47.952;-1.502;2022-12-07T09:13:14;2.10;82.80
49253;DHT22;35103;47.952;-1.502;2022-12-07T09:15:39;2.20;82.70
49253;DHT22;35103;47.952;-1.502;2022-12-07T09:18:05;2.30;82.60
49253;DHT22;35103;47.952;-1.502;2022-12-07T09:20:31;2.30;82.80
49253;DHT22;35103;47.952;-1.502;2022-12-07T09:22:56;2.30;82.80
49253;DHT22;35103;47.952;-1.502;2022-12-07T09:25:22;2.30;82.70
49253;DHT22;35103;47.952;-1.502;2022-12-07T09:27:47;2.30;82.50
49253;DHT22;35103;47.952;-1.502;2022-12-07T09:30:13;2.40;82.40
49253;DHT22;35103;47.952;-1.502;2022-12-07T09:32:39;2.40;82.50
49253;DHT22;35103;47.952;-1.502;2022-12-07T09:35:05;2.40;82.40
49253;DHT22;35103;47.952;-1.502;2022-12-07T09:37:30;2.40;82.40
49253;DHT22;35103;47.952;-1.502;2022-12-07T09:39:56;2.40;82.70
49253;DHT22;35103;47.952;-1.502;2022-12-07T09:42:26;2.50;82.60
49253;DHT22;35103;47.952;-1.502;2022-12-07T09:44:52;2.50;82.60
49253;DHT22;35103;47.952;-1.502;2022-12-07T09:47:18;2.60;82.60
49253;DHT22;35103;47.952;-1.502;2022-12-07T09:49:44;2.60;82.50
49253;DHT22;35103;47.952;-1.502;2022-12-07T09:52:19;2.60;82.50
49253;DHT22;35103;47.952;-1.502;2022-12-07T09:54:48;2.60;82.60
49253;DHT22;35103;47.952;-1.502;2022-12-07T09:57:15;2.70;82.50
49253;DHT22;35103;47.952;-1.502;2022-12-07T09:59:41;2.80;82.60
49253;DHT22;35103;47.952;-1.502;2022-12-07T10:02:35;2.80;82.40
49253;DHT22;35103;47.952;-1.502;2022-12-07T10:05:01;2.90;82.30
49253;DHT22;35103;47.952;-1.502;2022-12-07T10:07:29;2.90;82.20
49253;DHT22;35103;47.952;-1.502;2022-12-07T10:09:55;3.00;82.10
49253;DHT22;35103;47.952;-1.502;2022-12-07T10:12:20;2.90;82.10
49253;DHT22;35103;47.952;-1.502;2022-12-07T10:15:04;3.00;82.20
49253;DHT22;35103;47.952;-1.502;2022-12-07T10:17:37;3.00;82.10
49253;DHT22;35103;47.952;-1.502;2022-12-07T10:22:55;3.00;82.00
49253;DHT22;35103;47.952;-1.502;2022-12-07T10:25:22;3.00;82.00
49253;DHT22;35103;47.952;-1.502;2022-12-07T10:28:12;3.10;82.30
49253;DHT22;35103;47.952;-1.502;2022-12-07T10:31:15;3.20;82.30
49253;DHT22;35103;47.952;-1.502;2022-12-07T10:33:54;3.30;82.20
49253;DHT22;35103;47.952;-1.502;2022-12-07T10:39:00;3.30;82.20
49253;DHT22;35103;47.952;-1.502;2022-12-07T10:41:26;3.30;82.10
49253;DHT22;35103;47.952;-1.502;2022-12-07T10:43:56;3.30;82.20
49253;DHT22;35103;47.952;-1.502;2022-12-07T11:01:06;3.50;81.90
49253;DHT22;35103;47.952;-1.502;2022-12-07T11:11:34;3.60;81.80
49253;DHT22;35103;47.952;-1.502;2022-12-07T11:17:36;3.70;81.90
49253;DHT22;35103;47.952;-1.502;2022-12-07T11:23:13;3.80;81.50
49253;DHT22;35103;47.952;-1.502;2022-12-07T11:31:30;3.80;81.80
49253;DHT22;35103;47.952;-1.502;2022-12-07T11:34:18;3.90;81.80
49253;DHT22;35103;47.952;-1.502;2022-12-07T11:36:51;4.00;81.70
49253;DHT22;35103;47.952;-1.502;2022-12-07T11:39:41;4.00;80.70
49253;DHT22;35103;47.952;-1.502;2022-12-07T11:44:57;3.90;81.10
49253;DHT22;35103;47.952;-1.502;2022-12-07T11:50:41;3.90;81.10
49253;DHT22;35103;47.952;-1.502;2022-12-07T11:55:56;4.00;81.30
49253;DHT22;35103;47.952;-1.502;2022-12-07T12:06:40;4.20;81.10
49253;DHT22;35103;47.952;-1.502;2022-12-07T12:12:00;4.30;81.30
49253;DHT22;35103;47.952;-1.502;2022-12-07T12:14:42;4.30;81.20
49253;DHT22;35103;47.952;-1.502;2022-12-07T12:23:00;4.50;81.00
49253;DHT22;35103;47.952;-1.502;2022-12-07T12:25:36;4.50;81.20
49253;DHT22;35103;47.952;-1.502;2022-12-07T12:28:04;4.70;80.90
49253;DHT22;35103;47.952;-1.502;2022-12-07T12:30:39;4.70;80.90
49253;DHT22;35103;47.952;-1.502;2022-12-07T12:35:39;4.90;81.00
49253;DHT22;35103;47.952;-1.502;2022-12-07T12:40:55;5.10;80.50
49253;DHT22;35103;47.952;-1.502;2022-12-07T12:43:49;5.10;80.40
49253;DHT22;35103;47.952;-1.502;2022-12-07T12:51:45;5.00;79.40
49253;DHT22;35103;47.952;-1.502;2022-12-07T12:54:15;5.00;79.90
49253;DHT22;35103;47.952;-1.502;2022-12-07T12:56:51;5.00;79.80
49253;DHT22;35103;47.952;-1.502;2022-12-07T12:59:31;5.00;79.80
49253;DHT22;35103;47.952;-1.502;2022-12-07T13:02:33;5.00;80.10
49253;DHT22;35103;47.952;-1.502;2022-12-07T13:23:37;5.80;79.10
49253;DHT22;35103;47.952;-1.502;2022-12-07T13:28:41;5.80;79.60
49253;DHT22;35103;47.952;-1.502;2022-12-07T13:31:20;5.80;79.20
49253;DHT22;35103;47.952;-1.502;2022-12-07T13:33:49;5.80;79.50
49253;DHT22;35103;47.952;-1.502;2022-12-07T13:38:57;5.80;79.30
49253;DHT22;35103;47.952;-1.502;2022-12-07T13:41:26;5.80;78.90
49253;DHT22;35103;47.952;-1.502;2022-12-07T13:49:32;6.00;79.50
49253;DHT22;35103;47.952;-1.502;2022-12-07T13:54:57;6.10;79.20
49253;DHT22;35103;47.952;-1.502;2022-12-07T13:57:24;6.20;78.80
49253;DHT22;35103;47.952;-1.502;2022-12-07T13:59:51;6.30;79.00
49253;DHT22;35103;47.952;-1.502;2022-12-07T14:02:35;6.30;78.90
49253;DHT22;35103;47.952;-1.502;2022-12-07T14:05:14;6.30;79.10
49253;DHT22;35103;47.952;-1.502;2022-12-07T14:08:04;6.40;79.10
49253;DHT22;35103;47.952;-1.502;2022-12-07T14:10:52;6.40;79.20
49253;DHT22;35103;47.952;-1.502;2022-12-07T14:13:40;6.40;78.80
49253;DHT22;35103;47.952;-1.502;2022-12-07T14:16:24;6.60;78.80
49253;DHT22;35103;47.952;-1.502;2022-12-07T14:18:50;6.60;79.10
49253;DHT22;35103;47.952;-1.502;2022-12-07T14:21:18;6.80;80.50
49253;DHT22;35103;47.952;-1.502;2022-12-07T14:23:44;7.00;81.50
49253;DHT22;35103;47.952;-1.502;2022-12-07T14:26:15;7.60;81.50
49253;DHT22;35103;47.952;-1.502;2022-12-07T14:28:42;8.20;80.10
49253;DHT22;35103;47.952;-1.502;2022-12-07T14:31:15;8.80;78.60
49253;DHT22;35103;47.952;-1.502;2022-12-07T14:33:41;9.30;78.00
49253;DHT22;35103;47.952;-1.502;2022-12-07T14:36:14;9.80;75.80
49253;DHT22;35103;47.952;-1.502;2022-12-07T14:38:40;10.00;74.70
49253;DHT22;35103;47.952;-1.502;2022-12-07T14:41:17;10.30;74.30
49253;DHT22;35103;47.952;-1.502;2022-12-07T14:43:46;10.60;74.70
49253;DHT22;35103;47.952;-1.502;2022-12-07T14:46:12;10.80;72.10
49253;DHT22;35103;47.952;-1.502;2022-12-07T14:48:37;11.10;72.70
49253;DHT22;35103;47.952;-1.502;2022-12-07T14:51:04;11.40;70.70
49253;DHT22;35103;47.952;-1.502;2022-12-07T14:53:35;11.70;71.70
49253;DHT22;35103;47.952;-1.502;2022-12-07T14:56:01;11.80;68.20
49253;DHT22;35103;47.952;-1.502;2022-12-07T14:58:27;11.90;67.60
49253;DHT22;35103;47.952;-1.502;2022-12-07T15:00:52;11.90;67.10
49253;DHT22;35103;47.952;-1.502;2022-12-07T15:03:18;12.00;67.80
49253;DHT22;35103;47.952;-1.502;2022-12-07T15:05:44;11.90;67.30
49253;DHT22;35103;47.952;-1.502;2022-12-07T15:08:13;12.00;66.30
49253;DHT22;35103;47.952;-1.502;2022-12-07T15:10:38;12.10;67.40
49253;DHT22;35103;47.952;-1.502;2022-12-07T15:13:04;12.10;66.40
49253;DHT22;35103;47.952;-1.502;2022-12-07T15:15:30;12.10;66.70
49253;DHT22;35103;47.952;-1.502;2022-12-07T15:17:56;12.10;67.30
49253;DHT22;35103;47.952;-1.502;2022-12-07T15:20:22;12.10;65.60
49253;DHT22;35103;47.952;-1.502;2022-12-07T15:22:47;11.90;63.70
49253;DHT22;35103;47.952;-1.502;2022-12-07T15:25:14;11.30;63.10
49253;DHT22;35103;47.952;-1.502;2022-12-07T15:27:39;10.60;63.60
49253;DHT22;35103;47.952;-1.502;2022-12-07T15:30:05;9.90;64.90
49253;DHT22;35103;47.952;-1.502;2022-12-07T15:32:31;9.40;65.50
49253;DHT22;35103;47.952;-1.502;2022-12-07T15:34:57;8.90;66.80
49253;DHT22;35103;47.952;-1.502;2022-12-07T15:37:22;8.60;67.90
49253;DHT22;35103;47.952;-1.502;2022-12-07T15:39:48;8.30;68.30
49253;DHT22;35103;47.952;-1.502;2022-12-07T15:42:13;7.90;69.00
49253;DHT22;35103;47.952;-1.502;2022-12-07T15:44:39;7.70;69.60
49253;DHT22;35103;47.952;-1.502;2022-12-07T15:47:05;7.50;69.80
49253;DHT22;35103;47.952;-1.502;2022-12-07T15:49:31;7.20;70.50
49253;DHT22;35103;47.952;-1.502;2022-12-07T15:51:56;7.00;70.90
49253;DHT22;35103;47.952;-1.502;2022-12-07T15:54:27;6.90;71.10
49253;DHT22;35103;47.952;-1.502;2022-12-07T15:56:53;6.70;71.50
49253;DHT22;35103;47.952;-1.502;2022-12-07T15:59:19;6.60;71.90
49253;DHT22;35103;47.952;-1.502;2022-12-07T16:01:44;6.40;72.00
49253;DHT22;35103;47.952;-1.502;2022-12-07T16:04:10;6.30;72.00
49253;DHT22;35103;47.952;-1.502;2022-12-07T16:06:36;6.20;72.30
49253;DHT22;35103;47.952;-1.502;2022-12-07T16:09:01;6.10;72.50
49253;DHT22;35103;47.952;-1.502;2022-12-07T16:11:27;6.00;72.60
49253;DHT22;35103;47.952;-1.502;2022-12-07T16:13:53;5.80;72.70
49253;DHT22;35103;47.952;-1.502;2022-12-07T16:16:19;5.70;72.70
49253;DHT22;35103;47.952;-1.502;2022-12-07T16:18:46;5.60;73.10
49253;DHT22;35103;47.952;-1.502;2022-12-07T16:21:12;5.50;73.20
49253;DHT22;35103;47.952;-1.502;2022-12-07T16:23:39;5.40;73.00
49253;DHT22;35103;47.952;-1.502;2022-12-07T16:26:13;5.30;73.20
49253;DHT22;35103;47.952;-1.502;2022-12-07T16:28:38;5.20;73.40
49253;DHT22;35103;47.952;-1.502;2022-12-07T16:31:19;5.10;73.40
49253;DHT22;35103;47.952;-1.502;2022-12-07T16:33:45;5.00;73.50
49253;DHT22;35103;47.952;-1.502;2022-12-07T16:36:12;4.80;73.50
49253;DHT22;35103;47.952;-1.502;2022-12-07T16:38:38;4.80;73.60
49253;DHT22;35103;47.952;-1.502;2022-12-07T16:41:05;4.70;73.50
49253;DHT22;35103;47.952;-1.502;2022-12-07T16:43:31;4.60;73.60
49253;DHT22;35103;47.952;-1.502;2022-12-07T16:45:57;4.50;74.10
49253;DHT22;35103;47.952;-1.502;2022-12-07T16:48:23;4.40;74.10
49253;DHT22;35103;47.952;-1.502;2022-12-07T16:50:48;4.40;74.30
49253;DHT22;35103;47.952;-1.502;2022-12-07T16:53:14;4.30;74.40
49253;DHT22;35103;47.952;-1.502;2022-12-07T16:55:42;4.30;74.40
49253;DHT22;35103;47.952;-1.502;2022-12-07T16:58:08;4.20;74.60
49253;DHT22;35103;47.952;-1.502;2022-12-07T17:00:35;4.20;74.60
49253;DHT22;35103;47.952;-1.502;2022-12-07T17:03:01;4.00;74.50
49253;DHT22;35103;47.952;-1.502;2022-12-07T17:05:27;4.00;74.50
49253;DHT22;35103;47.952;-1.502;2022-12-07T17:07:52;3.90;74.60
49253;DHT22;35103;47.952;-1.502;2022-12-07T17:10:18;3.90;74.50
49253;DHT22;35103;47.952;-1.502;2022-12-07T17:12:43;3.80;74.30
49253;DHT22;35103;47.952;-1.502;2022-12-07T17:15:10;3.70;74.20
49253;DHT22;35103;47.952;-1.502;2022-12-07T17:17:35;3.60;74.50
49253;DHT22;35103;47.952;-1.502;2022-12-07T17:20:01;3.50;74.50
49253;DHT22;35103;47.952;-1.502;2022-12-07T17:22:26;3.50;74.70
49253;DHT22;35103;47.952;-1.502;2022-12-07T17:24:52;3.40;74.80
49253;DHT22;35103;47.952;-1.502;2022-12-07T17:27:17;3.40;74.80
49253;DHT22;35103;47.952;-1.502;2022-12-07T17:29:43;3.30;74.80
49253;DHT22;35103;47.952;-1.502;2022-12-07T17:32:08;3.30;75.00
49253;DHT22;35103;47.952;-1.502;2022-12-07T17:34:34;3.30;74.80
49253;DHT22;35103;47.952;-1.502;2022-12-07T17:37:00;3.20;75.00
49253;DHT22;35103;47.952;-1.502;2022-12-07T17:39:25;3.10;75.10
49253;DHT22;35103;47.952;-1.502;2022-12-07T17:41:51;3.10;75.00
49253;DHT22;35103;47.952;-1.502;2022-12-07T17:44:18;3.00;74.90
49253;DHT22;35103;47.952;-1.502;2022-12-07T17:46:44;3.00;75.00
49253;DHT22;35103;47.952;-1.502;2022-12-07T17:49:10;2.90;75.10
49253;DHT22;35103;47.952;-1.502;2022-12-07T17:51:36;2.90;75.50
49253;DHT22;35103;47.952;-1.502;2022-12-07T17:54:01;2.90;75.60
49253;DHT22;35103;47.952;-1.502;2022-12-07T17:56:27;2.90;75.70